sensor_id;sensor_type;location;lat;lon;timestamp;P1;durP1;ratioP1;P2;durP2;ratioP2
34359;SDS011;20624;55.870;26.506;2023-02-17T00:01:29;3.78;;;1.40;;
34359;SDS011;20624;55.870;26.506;2023-02-17T00:03:59;4.30;;;1.60;;
34359;SDS011;20624;55.870;26.506;2023-02-17T00:06:28;4.80;;;1.73;;
34359;SDS011;20624;55.870;26.506;2023-02-17T00:08:57;8.02;;;2.53;;
34359;SDS011;20624;55.870;26.506;2023-02-17T00:11:25;4.72;;;1.58;;
34359;SDS011;20624;55.870;26.506;2023-02-17T00:13:53;3.42;;;1.52;;
34359;SDS011;20624;55.870;26.506;2023-02-17T00:16:22;3.33;;;1.27;;
34359;SDS011;20624;55.870;26.506;2023-02-17T00:18:54;2.40;;;1.00;;
34359;SDS011;20624;55.870;26.506;2023-02-17T00:21:24;6.13;;;1.88;;
34359;SDS011;20624;55.870;26.506;2023-02-17T00:23:53;3.45;;;1.50;;
34359;SDS011;20624;55.870;26.506;2023-02-17T00:26:22;3.83;;;1.75;;
34359;SDS011;20624;55.870;26.506;2023-02-17T00:28:49;2.90;;;0.95;;
34359;SDS011;20624;55.870;26.506;2023-02-17T00:31:18;4.15;;;1.25;;
34359;SDS011;20624;55.870;26.506;2023-02-17T00:33:47;3.78;;;1.55;;
34359;SDS011;20624;55.870;26.506;2023-02-17T00:36:16;3.20;;;1.27;;
34359;SDS011;20624;55.870;26.506;2023-02-17T00:38:47;2.47;;;1.20;;
34359;SDS011;20624;55.870;26.506;2023-02-17T00:41:15;2.15;;;1.10;;
34359;SDS011;20624;55.870;26.506;2023-02-17T00:43:45;2.95;;;1.23;;
34359;SDS011;20624;55.870;26.506;2023-02-17T00:46:13;5.70;;;1.88;;
34359;SDS011;20624;55.870;26.506;2023-02-17T00:48:41;2.90;;;1.17;;
34359;SDS011;20624;55.870;26.506;2023-02-17T00:51:09;3.42;;;1.50;;
34359;SDS011;20624;55.870;26.506;2023-02-17T00:53:37;3.95;;;1.40;;
34359;SDS011;20624;55.870;26.506;2023-02-17T00:58:38;4.10;;;1.10;;
34359;SDS011;20624;55.870;26.506;2023-02-17T01:01:07;3.17;;;1.15;;
34359;SDS011;20624;55.870;26.506;2023-02-17T01:03:35;2.67;;;1.05;;
34359;SDS011;20624;55.870;26.506;2023-02-17T01:06:07;2.95;;;1.27;;
34359;SDS011;20624;55.870;26.506;2023-02-17T01:08:36;2.85;;;1.30;;
34359;SDS011;20624;55.870;26.506;2023-02-17T01:11:04;5.95;;;1.70;;
34359;SDS011;20624;55.870;26.506;2023-02-17T01:13:32;4.13;;;1.30;;
34359;SDS011;20624;55.870;26.506;2023-02-17T01:15:59;3.10;;;1.17;;
34359;SDS011;20624;55.870;26.506;2023-02-17T01:18:27;2.58;;;0.88;;
34359;SDS011;20624;55.870;26.506;2023-02-17T01:20:58;2.63;;;0.90;;
34359;SDS011;20624;55.870;26.506;2023-02-17T01:23:26;3.88;;;1.17;;
34359;SDS011;20624;55.870;26.506;2023-02-17T01:25:55;2.10;;;0.90;;
34359;SDS011;20624;55.870;26.506;2023-02-17T01:28:25;2.10;;;1.10;;
34359;SDS011;20624;55.870;26.506;2023-02-17T01:30:55;1.90;;;1.00;;
34359;SDS011;20624;55.870;26.506;2023-02-17T01:33:26;1.98;;;1.00;;
34359;SDS011;20624;55.870;26.506;2023-02-17T01:35:54;3.22;;;1.20;;
34359;SDS011;20624;55.870;26.506;2023-02-17T01:38:21;6.18;;;1.67;;
34359;SDS011;20624;55.870;26.506;2023-02-17T01:40:49;2.25;;;0.98;;
34359;SDS011;20624;55.870;26.506;2023-02-17T01:43:17;5.43;;;1.55;;
34359;SDS011;20624;55.870;26.506;2023-02-17T01:45:45;4.43;;;1.50;;
34359;SDS011;20624;55.870;26.506;2023-02-17T01:48:40;2.10;;;0.90;;
34359;SDS011;20624;55.870;26.506;2023-02-17T01:51:12;2.78;;;1.13;;
34359;SDS011;20624;55.870;26.506;2023-02-17T01:53:47;2.20;;;0.85;;
34359;SDS011;20624;55.870;26.506;2023-02-17T01:56:18;1.55;;;0.93;;
34359;SDS011;20624;55.870;26.506;2023-02-17T01:58:47;2.58;;;1.00;;
34359;SDS011;20624;55.870;26.506;2023-02-17T02:01:20;1.50;;;0.68;;
34359;SDS011;20624;55.870;26.506;2023-02-17T02:03:49;2.17;;;0.85;;
34359;SDS011;20624;55.870;26.506;2023-02-17T02:06:19;6.10;;;1.50;;
34359;SDS011;20624;55.870;26.506;2023-02-17T02:08:58;3.40;;;1.10;;
34359;SDS011;20624;55.870;26.506;2023-02-17T02:11:32;9.40;;;2.05;;
34359;SDS011;20624;55.870;26.506;2023-02-17T02:14:01;1.50;;;0.90;;
34359;SDS011;20624;55.870;26.506;2023-02-17T02:19:45;2.75;;;0.90;;
34359;SDS011;20624;55.870;26.506;2023-02-17T02:27:59;2.60;;;0.90;;
34359;SDS011;20624;55.870;26.506;2023-02-17T02:30:44;5.82;;;1.33;;
34359;SDS011;20624;55.870;26.506;2023-02-17T02:38:42;3.13;;;1.10;;
34359;SDS011;20624;55.870;26.506;2023-02-17T02:41:20;2.15;;;0.82;;
34359;SDS011;20624;55.870;26.506;2023-02-17T02:44:11;2.17;;;0.93;;
34359;SDS011;20624;55.870;26.506;2023-02-17T02:46:40;4.40;;;1.35;;
34359;SDS011;20624;55.870;26.506;2023-02-17T02:49:08;1.70;;;0.75;;
34359;SDS011;20624;55.870;26.506;2023-02-17T03:02:07;2.20;;;0.80;;
34359;SDS011;20624;55.870;26.506;2023-02-17T03:04:39;6.05;;;1.48;;
34359;SDS011;20624;55.870;26.506;2023-02-17T03:10:13;1.77;;;0.80;;
34359;SDS011;20624;55.870;26.506;2023-02-17T03:12:41;3.50;;;1.15;;
34359;SDS011;20624;55.870;26.506;2023-02-17T03:15:20;2.67;;;0.98;;
34359;SDS011;20624;55.870;26.506;2023-02-17T03:17:49;5.10;;;1.40;;
34359;SDS011;20624;55.870;26.506;2023-02-17T03:20:16;1.35;;;0.75;;
34359;SDS011;20624;55.870;26.506;2023-02-17T03:22:47;1.60;;;0.68;;
34359;SDS011;20624;55.870;26.506;2023-02-17T03:25:15;2.03;;;0.80;;
34359;SDS011;20624;55.870;26.506;2023-02-17T03:27:42;4.50;;;1.17;;
34359;SDS011;20624;55.870;26.506;2023-02-17T03:30:11;2.83;;;1.10;;
34359;SDS011;20624;55.870;26.506;2023-02-17T03:32:39;2.67;;;1.10;;
34359;SDS011;20624;55.870;26.506;2023-02-17T03:35:09;4.95;;;1.42;;
34359;SDS011;20624;55.870;26.506;2023-02-17T03:37:36;1.75;;;0.70;;
34359;SDS011;20624;55.870;26.506;2023-02-17T03:40:05;3.65;;;1.20;;
34359;SDS011;20624;55.870;26.506;2023-02-17T03:42:33;1.90;;;0.80;;
34359;SDS011;20624;55.870;26.506;2023-02-17T03:45:01;3.13;;;0.98;;
34359;SDS011;20624;55.870;26.506;2023-02-17T03:47:29;5.03;;;1.23;;
34359;SDS011;20624;55.870;26.506;2023-02-17T03:49:56;2.38;;;0.95;;
34359;SDS011;20624;55.870;26.506;2023-02-17T03:52:24;2.33;;;0.80;;
34359;SDS011;20624;55.870;26.506;2023-02-17T03:54:52;3.15;;;1.05;;
34359;SDS011;20624;55.870;26.506;2023-02-17T03:57:19;1.67;;;0.73;;
34359;SDS011;20624;55.870;26.506;2023-02-17T03:59:49;1.92;;;0.82;;
34359;SDS011;20624;55.870;26.506;2023-02-17T04:02:17;2.00;;;0.90;;
34359;SDS011;20624;55.870;26.506;2023-02-17T04:04:45;2.63;;;1.10;;
34359;SDS011;20624;55.870;26.506;2023-02-17T04:07:15;2.38;;;0.93;;
34359;SDS011;20624;55.870;26.506;2023-02-17T04:09:42;2.33;;;0.98;;
34359;SDS011;20624;55.870;26.506;2023-02-17T04:12:10;3.10;;;1.10;;
34359;SDS011;20624;55.870;26.506;2023-02-17T04:14:40;2.97;;;0.80;;
34359;SDS011;20624;55.870;26.506;2023-02-17T04:17:08;4.20;;;1.23;;
34359;SDS011;20624;55.870;26.506;2023-02-17T04:19:36;5.15;;;1.20;;
34359;SDS011;20624;55.870;26.506;2023-02-17T04:22:06;2.17;;;0.90;;
34359;SDS011;20624;55.870;26.506;2023-02-17T04:24:37;5.47;;;1.23;;
34359;SDS011;20624;55.870;26.506;2023-02-17T04:27:04;5.55;;;1.60;;
34359;SDS011;20624;55.870;26.506;2023-02-17T04:29:35;6.78;;;1.60;;
34359;SDS011;20624;55.870;26.506;2023-02-17T04:32:03;1.73;;;0.90;;
34359;SDS011;20624;55.870;26.506;2023-02-17T04:34:31;2.63;;;1.02;;
34359;SDS011;20624;55.870;26.506;2023-02-17T04:36:58;1.88;;;0.60;;
34359;SDS011;20624;55.870;26.506;2023-02-17T04:39:26;2.50;;;0.98;;
34359;SDS011;20624;55.870;26.506;2023-02-17T04:41:56;5.32;;;1.35;;
34359;SDS011;20624;55.870;26.506;2023-02-17T04:44:24;3.67;;;1.10;;
34359;SDS011;20624;55.870;26.506;2023-02-17T04:46:54;2.05;;;0.90;;
34359;SDS011;20624;55.870;26.506;2023-02-17T04:49:22;4.65;;;1.27;;
34359;SDS011;20624;55.870;26.506;2023-02-17T04:51:49;5.68;;;1.42;;
34359;SDS011;20624;55.870;26.506;2023-02-17T04:54:17;3.28;;;0.90;;
34359;SDS011;20624;55.870;26.506;2023-02-17T04:56:48;2.58;;;1.02;;
34359;SDS011;20624;55.870;26.506;2023-02-17T04:59:15;3.83;;;1.13;;
34359;SDS011;20624;55.870;26.506;2023-02-17T05:04:13;2.55;;;0.82;;
34359;SDS011;20624;55.870;26.506;2023-02-17T05:06:43;5.22;;;1.30;;
34359;SDS011;20624;55.870;26.506;2023-02-17T05:09:10;2.63;;;0.90;;
34359;SDS011;20624;55.870;26.506;2023-02-17T05:11:41;3.70;;;1.25;;
34359;SDS011;20624;55.870;26.506;2023-02-17T05:14:08;3.75;;;1.23;;
34359;SDS011;20624;55.870;26.506;2023-02-17T05:16:36;4.32;;;1.25;;
34359;SDS011;20624;55.870;26.506;2023-02-17T05:19:06;1.50;;;0.60;;
34359;SDS011;20624;55.870;26.506;2023-02-17T05:21:33;3.40;;;1.15;;
34359;SDS011;20624;55.870;26.506;2023-02-17T05:26:33;3.90;;;0.98;;
34359;SDS011;20624;55.870;26.506;2023-02-17T05:29:01;2.08;;;1.00;;
34359;SDS011;20624;55.870;26.506;2023-02-17T05:31:33;6.93;;;1.60;;
34359;SDS011;20624;55.870;26.506;2023-02-17T05:34:03;2.08;;;0.77;;
34359;SDS011;20624;55.870;26.506;2023-02-17T05:36:31;4.18;;;1.23;;
34359;SDS011;20624;55.870;26.506;2023-02-17T05:38:58;4.63;;;1.20;;
34359;SDS011;20624;55.870;26.506;2023-02-17T05:41:28;5.95;;;1.65;;
34359;SDS011;20624;55.870;26.506;2023-02-17T05:43:56;5.65;;;1.50;;
34359;SDS011;20624;55.870;26.506;2023-02-17T05:46:23;7.13;;;1.75;;
34359;SDS011;20624;55.870;26.506;2023-02-17T05:48:51;9.50;;;2.13;;
34359;SDS011;20624;55.870;26.506;2023-02-17T05:51:19;3.55;;;1.10;;
34359;SDS011;20624;55.870;26.506;2023-02-17T05:53:49;4.43;;;1.23;;
34359;SDS011;20624;55.870;26.506;2023-02-17T05:56:19;15.55;;;3.20;;
34359;SDS011;20624;55.870;26.506;2023-02-17T05:58:46;5.68;;;1.35;;
34359;SDS011;20624;55.870;26.506;2023-02-17T06:01:13;5.78;;;1.52;;
34359;SDS011;20624;55.870;26.506;2023-02-17T06:03:41;10.27;;;1.98;;
34359;SDS011;20624;55.870;26.506;2023-02-17T06:06:09;6.75;;;1.60;;
34359;SDS011;20624;55.870;26.506;2023-02-17T06:08:36;6.20;;;1.50;;
34359;SDS011;20624;55.870;26.506;2023-02-17T06:11:07;3.97;;;1.38;;
34359;SDS011;20624;55.870;26.506;2023-02-17T06:13:34;6.38;;;1.50;;
34359;SDS011;20624;55.870;26.506;2023-02-17T06:16:02;14.18;;;2.47;;
34359;SDS011;20624;55.870;26.506;2023-02-17T06:18:31;11.20;;;2.28;;
34359;SDS011;20624;55.870;26.506;2023-02-17T06:20:58;9.48;;;2.05;;
34359;SDS011;20624;55.870;26.506;2023-02-17T06:23:26;9.32;;;2.00;;
34359;SDS011;20624;55.870;26.506;2023-02-17T06:25:56;10.15;;;2.03;;
34359;SDS011;20624;55.870;26.506;2023-02-17T06:28:24;8.40;;;1.85;;
34359;SDS011;20624;55.870;26.506;2023-02-17T06:30:54;7.20;;;1.52;;
34359;SDS011;20624;55.870;26.506;2023-02-17T06:33:22;8.43;;;1.75;;
34359;SDS011;20624;55.870;26.506;2023-02-17T06:35:50;16.58;;;2.88;;
34359;SDS011;20624;55.870;26.506;2023-02-17T06:38:18;10.20;;;2.03;;
34359;SDS011;20624;55.870;26.506;2023-02-17T06:40:45;11.43;;;2.50;;
34359;SDS011;20624;55.870;26.506;2023-02-17T06:43:13;11.35;;;2.08;;
34359;SDS011;20624;55.870;26.506;2023-02-17T06:45:41;12.25;;;2.38;;
34359;SDS011;20624;55.870;26.506;2023-02-17T06:48:08;8.18;;;1.80;;
34359;SDS011;20624;55.870;26.506;2023-02-17T06:50:36;6.70;;;1.55;;
34359;SDS011;20624;55.870;26.506;2023-02-17T06:53:05;8.15;;;1.80;;
34359;SDS011;20624;55.870;26.506;2023-02-17T06:55:33;12.45;;;2.35;;
34359;SDS011;20624;55.870;26.506;2023-02-17T06:58:02;8.02;;;1.55;;
34359;SDS011;20624;55.870;26.506;2023-02-17T07:00:30;10.38;;;1.98;;
34359;SDS011;20624;55.870;26.506;2023-02-17T07:02:57;10.70;;;2.15;;
34359;SDS011;20624;55.870;26.506;2023-02-17T07:05:25;13.43;;;2.55;;
34359;SDS011;20624;55.870;26.506;2023-02-17T07:10:28;11.40;;;2.13;;
34359;SDS011;20624;55.870;26.506;2023-02-17T07:12:56;6.88;;;1.60;;
34359;SDS011;20624;55.870;26.506;2023-02-17T07:15:24;16.92;;;3.15;;
34359;SDS011;20624;55.870;26.506;2023-02-17T07:17:51;13.32;;;2.40;;
34359;SDS011;20624;55.870;26.506;2023-02-17T07:20:20;9.00;;;1.98;;
34359;SDS011;20624;55.870;26.506;2023-02-17T07:22:48;18.08;;;3.25;;
34359;SDS011;20624;55.870;26.506;2023-02-17T07:25:15;7.20;;;1.45;;
34359;SDS011;20624;55.870;26.506;2023-02-17T07:27:43;10.73;;;2.20;;
34359;SDS011;20624;55.870;26.506;2023-02-17T07:30:11;10.20;;;1.90;;
34359;SDS011;20624;55.870;26.506;2023-02-17T07:32:39;22.90;;;4.18;;
34359;SDS011;20624;55.870;26.506;2023-02-17T07:35:11;25.73;;;4.55;;
34359;SDS011;20624;55.870;26.506;2023-02-17T07:37:39;16.88;;;3.10;;
34359;SDS011;20624;55.870;26.506;2023-02-17T07:40:07;14.02;;;2.58;;
34359;SDS011;20624;55.870;26.506;2023-02-17T07:42:35;11.85;;;2.22;;
34359;SDS011;20624;55.870;26.506;2023-02-17T07:45:05;17.85;;;3.42;;
34359;SDS011;20624;55.870;26.506;2023-02-17T07:50:00;14.05;;;2.47;;
34359;SDS011;20624;55.870;26.506;2023-02-17T07:52:31;16.17;;;2.83;;
34359;SDS011;20624;55.870;26.506;2023-02-17T07:54:58;13.48;;;2.53;;
34359;SDS011;20624;55.870;26.506;2023-02-17T07:57:26;12.98;;;2.25;;
34359;SDS011;20624;55.870;26.506;2023-02-17T07:59:54;24.00;;;4.30;;
34359;SDS011;20624;55.870;26.506;2023-02-17T08:02:21;20.35;;;3.45;;
34359;SDS011;20624;55.870;26.506;2023-02-17T08:04:50;30.50;;;5.40;;
34359;SDS011;20624;55.870;26.506;2023-02-17T08:07:18;8.70;;;2.15;;
34359;SDS011;20624;55.870;26.506;2023-02-17T08:09:46;18.85;;;3.35;;
34359;SDS011;20624;55.870;26.506;2023-02-17T08:12:32;13.20;;;2.65;;
34359;SDS011;20624;55.870;26.506;2023-02-17T08:15:21;11.05;;;2.08;;
34359;SDS011;20624;55.870;26.506;2023-02-17T08:17:48;12.43;;;2.42;;
34359;SDS011;20624;55.870;26.506;2023-02-17T08:20:16;11.07;;;2.20;;
34359;SDS011;20624;55.870;26.506;2023-02-17T08:22:44;13.45;;;2.75;;
34359;SDS011;20624;55.870;26.506;2023-02-17T08:25:15;10.77;;;2.47;;
34359;SDS011;20624;55.870;26.506;2023-02-17T08:27:44;12.48;;;2.72;;
34359;SDS011;20624;55.870;26.506;2023-02-17T08:30:13;17.08;;;3.70;;
34359;SDS011;20624;55.870;26.506;2023-02-17T08:32:40;22.98;;;4.70;;
34359;SDS011;20624;55.870;26.506;2023-02-17T08:35:08;13.77;;;2.95;;
34359;SDS011;20624;55.870;26.506;2023-02-17T08:37:38;14.57;;;2.97;;
34359;SDS011;20624;55.870;26.506;2023-02-17T08:40:06;23.85;;;4.43;;
34359;SDS011;20624;55.870;26.506;2023-02-17T08:42:36;12.82;;;2.78;;
34359;SDS011;20624;55.870;26.506;2023-02-17T08:47:32;14.32;;;3.10;;
34359;SDS011;20624;55.870;26.506;2023-02-17T08:50:01;22.50;;;4.57;;
34359;SDS011;20624;55.870;26.506;2023-02-17T08:52:32;20.15;;;3.95;;
34359;SDS011;20624;55.870;26.506;2023-02-17T08:55:00;17.83;;;3.60;;
34359;SDS011;20624;55.870;26.506;2023-02-17T08:57:28;15.25;;;3.40;;
34359;SDS011;20624;55.870;26.506;2023-02-17T08:59:55;24.58;;;4.75;;
34359;SDS011;20624;55.870;26.506;2023-02-17T09:02:23;14.63;;;3.00;;
34359;SDS011;20624;55.870;26.506;2023-02-17T09:04:51;15.40;;;3.40;;
34359;SDS011;20624;55.870;26.506;2023-02-17T09:07:19;17.13;;;3.42;;
34359;SDS011;20624;55.870;26.506;2023-02-17T09:09:47;13.90;;;3.20;;
34359;SDS011;20624;55.870;26.506;2023-02-17T09:12:14;11.80;;;2.85;;
34359;SDS011;20624;55.870;26.506;2023-02-17T09:14:42;14.07;;;3.25;;
34359;SDS011;20624;55.870;26.506;2023-02-17T09:17:09;14.85;;;2.97;;
34359;SDS011;20624;55.870;26.506;2023-02-17T09:19:39;18.92;;;3.85;;
34359;SDS011;20624;55.870;26.506;2023-02-17T09:22:12;13.68;;;3.08;;
34359;SDS011;20624;55.870;26.506;2023-02-17T09:24:58;15.98;;;3.70;;
34359;SDS011;20624;55.870;26.506;2023-02-17T09:27:27;24.30;;;4.57;;
34359;SDS011;20624;55.870;26.506;2023-02-17T09:29:55;25.13;;;4.75;;
34359;SDS011;20624;55.870;26.506;2023-02-17T09:32:26;22.58;;;4.15;;
34359;SDS011;20624;55.870;26.506;2023-02-17T09:34:53;22.13;;;4.25;;
34359;SDS011;20624;55.870;26.506;2023-02-17T09:37:24;21.17;;;4.15;;
34359;SDS011;20624;55.870;26.506;2023-02-17T09:39:52;25.45;;;4.90;;
34359;SDS011;20624;55.870;26.506;2023-02-17T09:42:23;21.45;;;4.35;;
34359;SDS011;20624;55.870;26.506;2023-02-17T09:45:02;20.55;;;4.03;;
34359;SDS011;20624;55.870;26.506;2023-02-17T09:47:39;13.32;;;3.08;;
34359;SDS011;20624;55.870;26.506;2023-02-17T09:50:21;23.42;;;4.47;;
34359;SDS011;20624;55.870;26.506;2023-02-17T09:53:20;20.60;;;3.83;;
34359;SDS011;20624;55.870;26.506;2023-02-17T09:55:54;22.60;;;4.40;;
34359;SDS011;20624;55.870;26.506;2023-02-17T09:58:32;27.15;;;4.97;;
34359;SDS011;20624;55.870;26.506;2023-02-17T10:01:05;24.33;;;4.40;;
34359;SDS011;20624;55.870;26.506;2023-02-17T10:06:23;21.70;;;4.47;;
34359;SDS011;20624;55.870;26.506;2023-02-17T10:14:44;22.77;;;4.45;;
34359;SDS011;20624;55.870;26.506;2023-02-17T10:17:25;27.42;;;5.07;;
34359;SDS011;20624;55.870;26.506;2023-02-17T10:22:45;16.77;;;3.58;;
34359;SDS011;20624;55.870;26.506;2023-02-17T10:25:19;12.43;;;2.40;;
34359;SDS011;20624;55.870;26.506;2023-02-17T10:28:09;12.18;;;2.83;;
34359;SDS011;20624;55.870;26.506;2023-02-17T10:30:48;12.52;;;2.75;;
34359;SDS011;20624;55.870;26.506;2023-02-17T10:33:36;19.65;;;3.70;;
34359;SDS011;20624;55.870;26.506;2023-02-17T10:39:11;27.30;;;5.20;;
34359;SDS011;20624;55.870;26.506;2023-02-17T10:41:48;12.93;;;2.80;;
34359;SDS011;20624;55.870;26.506;2023-02-17T10:44:19;16.67;;;3.38;;
34359;SDS011;20624;55.870;26.506;2023-02-17T10:46:50;11.25;;;2.47;;
34359;SDS011;20624;55.870;26.506;2023-02-17T10:49:27;13.25;;;2.75;;
34359;SDS011;20624;55.870;26.506;2023-02-17T10:51:58;15.77;;;3.28;;
34359;SDS011;20624;55.870;26.506;2023-02-17T10:54:34;12.45;;;2.60;;
34359;SDS011;20624;55.870;26.506;2023-02-17T10:57:07;19.00;;;3.58;;
34359;SDS011;20624;55.870;26.506;2023-02-17T10:59:37;16.67;;;3.30;;
34359;SDS011;20624;55.870;26.506;2023-02-17T11:02:20;13.23;;;2.80;;
34359;SDS011;20624;55.870;26.506;2023-02-17T11:04:53;10.60;;;2.58;;
34359;SDS011;20624;55.870;26.506;2023-02-17T11:07:23;8.07;;;2.08;;
34359;SDS011;20624;55.870;26.506;2023-02-17T11:09:53;16.55;;;3.35;;
34359;SDS011;20624;55.870;26.506;2023-02-17T11:12:27;15.65;;;3.03;;
34359;SDS011;20624;55.870;26.506;2023-02-17T11:14:59;21.77;;;3.92;;
34359;SDS011;20624;55.870;26.506;2023-02-17T11:20:01;21.23;;;4.00;;
34359;SDS011;20624;55.870;26.506;2023-02-17T11:22:36;13.35;;;2.78;;
34359;SDS011;20624;55.870;26.506;2023-02-17T11:25:21;13.75;;;2.83;;
34359;SDS011;20624;55.870;26.506;2023-02-17T11:27:52;14.20;;;3.00;;
34359;SDS011;20624;55.870;26.506;2023-02-17T11:32:52;10.63;;;2.40;;
34359;SDS011;20624;55.870;26.506;2023-02-17T11:35:26;8.82;;;1.98;;
34359;SDS011;20624;55.870;26.506;2023-02-17T11:38:00;21.70;;;3.72;;
34359;SDS011;20624;55.870;26.506;2023-02-17T11:40:30;17.58;;;3.42;;
34359;SDS011;20624;55.870;26.506;2023-02-17T11:43:03;12.88;;;2.58;;
34359;SDS011;20624;55.870;26.506;2023-02-17T11:51:41;14.35;;;2.83;;
34359;SDS011;20624;55.870;26.506;2023-02-17T11:54:23;10.65;;;2.03;;
34359;SDS011;20624;55.870;26.506;2023-02-17T12:13:14;21.33;;;3.97;;
34359;SDS011;20624;55.870;26.506;2023-02-17T12:15:58;30.60;;;5.43;;
34359;SDS011;20624;55.870;26.506;2023-02-17T12:18:46;14.80;;;2.90;;
34359;SDS011;20624;55.870;26.506;2023-02-17T12:29:39;13.15;;;2.95;;
34359;SDS011;20624;55.870;26.506;2023-02-17T12:38:23;15.77;;;3.03;;
34359;SDS011;20624;55.870;26.506;2023-02-17T12:40:54;15.82;;;3.20;;
34359;SDS011;20624;55.870;26.506;2023-02-17T12:45:52;23.02;;;4.60;;
34359;SDS011;20624;55.870;26.506;2023-02-17T12:48:33;17.02;;;3.05;;
34359;SDS011;20624;55.870;26.506;2023-02-17T12:51:05;17.90;;;3.33;;
34359;SDS011;20624;55.870;26.506;2023-02-17T12:59:33;24.40;;;4.38;;
34359;SDS011;20624;55.870;26.506;2023-02-17T13:02:15;21.65;;;3.88;;
34359;SDS011;20624;55.870;26.506;2023-02-17T13:04:54;11.98;;;2.58;;
34359;SDS011;20624;55.870;26.506;2023-02-17T13:07:44;10.85;;;2.13;;
34359;SDS011;20624;55.870;26.506;2023-02-17T13:10:25;13.48;;;2.80;;
34359;SDS011;20624;55.870;26.506;2023-02-17T13:13:01;27.13;;;5.10;;
34359;SDS011;20624;55.870;26.506;2023-02-17T13:15:44;17.75;;;3.22;;
34359;SDS011;20624;55.870;26.506;2023-02-17T13:18:55;15.90;;;3.17;;
34359;SDS011;20624;55.870;26.506;2023-02-17T13:21:14;16.25;;;3.10;;
34359;SDS011;20624;55.870;26.506;2023-02-17T13:26:33;15.07;;;2.90;;
34359;SDS011;20624;55.870;26.506;2023-02-17T13:31:58;19.63;;;3.53;;
34359;SDS011;20624;55.870;26.506;2023-02-17T13:39:57;19.65;;;3.60;;
34359;SDS011;20624;55.870;26.506;2023-02-17T13:44:55;12.70;;;2.50;;
34359;SDS011;20624;55.870;26.506;2023-02-17T13:47:27;17.65;;;3.28;;
34359;SDS011;20624;55.870;26.506;2023-02-17T13:50:03;22.50;;;4.05;;
34359;SDS011;20624;55.870;26.506;2023-02-17T13:52:31;14.48;;;3.00;;
34359;SDS011;20624;55.870;26.506;2023-02-17T13:54:59;12.63;;;2.33;;
34359;SDS011;20624;55.870;26.506;2023-02-17T13:57:34;16.30;;;3.08;;
34359;SDS011;20624;55.870;26.506;2023-02-17T14:02:56;18.10;;;3.58;;
34359;SDS011;20624;55.870;26.506;2023-02-17T14:05:39;23.35;;;4.15;;
34359;SDS011;20624;55.870;26.506;2023-02-17T14:08:17;17.65;;;3.13;;
34359;SDS011;20624;55.870;26.506;2023-02-17T14:10:45;22.23;;;4.30;;
34359;SDS011;20624;55.870;26.506;2023-02-17T14:13:15;11.20;;;2.25;;
34359;SDS011;20624;55.870;26.506;2023-02-17T14:15:50;18.63;;;3.28;;
34359;SDS011;20624;55.870;26.506;2023-02-17T14:18:27;12.73;;;2.58;;
34359;SDS011;20624;55.870;26.506;2023-02-17T14:23:50;20.33;;;3.55;;
34359;SDS011;20624;55.870;26.506;2023-02-17T14:26:27;14.10;;;2.92;;
34359;SDS011;20624;55.870;26.506;2023-02-17T14:29:02;14.40;;;2.85;;
34359;SDS011;20624;55.870;26.506;2023-02-17T14:31:38;17.85;;;3.33;;
34359;SDS011;20624;55.870;26.506;2023-02-17T14:37:06;12.82;;;2.45;;
34359;SDS011;20624;55.870;26.506;2023-02-17T14:39:42;9.25;;;1.83;;
34359;SDS011;20624;55.870;26.506;2023-02-17T14:42:10;12.30;;;2.45;;
34359;SDS011;20624;55.870;26.506;2023-02-17T14:44:38;11.50;;;2.42;;
34359;SDS011;20624;55.870;26.506;2023-02-17T14:47:06;11.45;;;2.35;;
34359;SDS011;20624;55.870;26.506;2023-02-17T14:49:34;9.32;;;2.15;;
34359;SDS011;20624;55.870;26.506;2023-02-17T14:52:08;8.45;;;1.92;;
34359;SDS011;20624;55.870;26.506;2023-02-17T14:54:48;9.93;;;2.25;;
34359;SDS011;20624;55.870;26.506;2023-02-17T14:57:19;10.80;;;2.30;;
34359;SDS011;20624;55.870;26.506;2023-02-17T14:59:55;17.25;;;3.22;;
34359;SDS011;20624;55.870;26.506;2023-02-17T15:02:23;9.60;;;2.03;;
34359;SDS011;20624;55.870;26.506;2023-02-17T15:04:50;13.35;;;2.65;;
34359;SDS011;20624;55.870;26.506;2023-02-17T15:07:18;6.47;;;1.52;;
34359;SDS011;20624;55.870;26.506;2023-02-17T15:09:46;10.88;;;2.10;;
34359;SDS011;20624;55.870;26.506;2023-02-17T15:12:18;1.90;;;1.10;;
34359;SDS011;20624;55.870;26.506;2023-02-17T15:14:47;6.38;;;1.50;;
34359;SDS011;20624;55.870;26.506;2023-02-17T15:17:17;5.60;;;1.40;;
34359;SDS011;20624;55.870;26.506;2023-02-17T15:19:45;5.30;;;1.58;;
34359;SDS011;20624;55.870;26.506;2023-02-17T15:22:15;5.15;;;1.60;;
34359;SDS011;20624;55.870;26.506;2023-02-17T15:24:45;6.53;;;1.75;;
34359;SDS011;20624;55.870;26.506;2023-02-17T15:27:15;9.48;;;2.25;;
34359;SDS011;20624;55.870;26.506;2023-02-17T15:29:43;5.28;;;1.50;;
34359;SDS011;20624;55.870;26.506;2023-02-17T15:32:13;7.38;;;1.77;;
34359;SDS011;20624;55.870;26.506;2023-02-17T15:34:45;5.15;;;1.63;;
34359;SDS011;20624;55.870;26.506;2023-02-17T15:37:12;14.05;;;3.13;;
34359;SDS011;20624;55.870;26.506;2023-02-17T15:39:40;9.38;;;2.28;;
34359;SDS011;20624;55.870;26.506;2023-02-17T15:42:10;5.15;;;1.40;;
34359;SDS011;20624;55.870;26.506;2023-02-17T15:44:45;8.13;;;1.83;;
34359;SDS011;20624;55.870;26.506;2023-02-17T15:47:18;6.07;;;1.52;;
34359;SDS011;20624;55.870;26.506;2023-02-17T15:49:46;7.10;;;1.83;;
34359;SDS011;20624;55.870;26.506;2023-02-17T15:52:14;5.40;;;1.33;;
34359;SDS011;20624;55.870;26.506;2023-02-17T15:54:42;5.22;;;1.55;;
34359;SDS011;20624;55.870;26.506;2023-02-17T15:57:21;10.05;;;2.35;;
34359;SDS011;20624;55.870;26.506;2023-02-17T15:59:49;9.73;;;2.00;;
34359;SDS011;20624;55.870;26.506;2023-02-17T16:02:21;12.95;;;2.72;;
34359;SDS011;20624;55.870;26.506;2023-02-17T16:04:49;2.33;;;1.20;;
34359;SDS011;20624;55.870;26.506;2023-02-17T16:07:18;3.70;;;1.13;;
34359;SDS011;20624;55.870;26.506;2023-02-17T16:09:46;4.28;;;1.35;;
34359;SDS011;20624;55.870;26.506;2023-02-17T16:12:14;8.00;;;1.80;;
34359;SDS011;20624;55.870;26.506;2023-02-17T16:14:44;7.43;;;1.88;;
34359;SDS011;20624;55.870;26.506;2023-02-17T16:17:12;6.65;;;1.73;;
34359;SDS011;20624;55.870;26.506;2023-02-17T16:19:41;9.82;;;1.92;;
34359;SDS011;20624;55.870;26.506;2023-02-17T16:22:09;6.45;;;1.65;;
34359;SDS011;20624;55.870;26.506;2023-02-17T16:24:37;4.80;;;2.08;;
34359;SDS011;20624;55.870;26.506;2023-02-17T16:27:06;9.57;;;2.30;;
34359;SDS011;20624;55.870;26.506;2023-02-17T16:29:37;7.13;;;1.80;;
34359;SDS011;20624;55.870;26.506;2023-02-17T16:32:06;8.48;;;1.73;;
34359;SDS011;20624;55.870;26.506;2023-02-17T16:34:34;3.90;;;1.50;;
34359;SDS011;20624;55.870;26.506;2023-02-17T16:37:02;11.00;;;2.30;;
34359;SDS011;20624;55.870;26.506;2023-02-17T16:39:37;3.95;;;1.23;;
34359;SDS011;20624;55.870;26.506;2023-02-17T16:42:04;8.93;;;2.00;;
34359;SDS011;20624;55.870;26.506;2023-02-17T16:44:32;4.03;;;1.33;;
34359;SDS011;20624;55.870;26.506;2023-02-17T16:47:00;3.22;;;1.10;;
34359;SDS011;20624;55.870;26.506;2023-02-17T16:49:30;12.32;;;2.15;;
34359;SDS011;20624;55.870;26.506;2023-02-17T16:52:03;3.97;;;1.15;;
34359;SDS011;20624;55.870;26.506;2023-02-17T16:54:33;5.60;;;1.52;;
34359;SDS011;20624;55.870;26.506;2023-02-17T16:57:04;10.30;;;2.08;;
34359;SDS011;20624;55.870;26.506;2023-02-17T16:59:31;5.85;;;1.55;;